Time;durP1;ratioP1;P1;durP2;ratioP2;P2;SDS_P1;SDS_P2;PMS_P1;PMS_P2;Temp;Humidity;BMP_temperature;BMP_pressure;BME280_temperature;BME280_humidity;BME280_pressure;Samples;Min_cycle;Max_cycle;Signal;HPM_P1;HPM_P2
2021/10/11 00:00:11;;;;;;;50.67;32.50;;;;;;;2.32;100.00;96638.06;1019006;29;20425;-69
2021/10/11 00:00:41;;;;;;;49.75;33.30;;;;;;;2.40;100.00;96653.44;1012761;29;20036;-69
2021/10/11 00:01:12;;;;;;;51.50;33.25;;;;;;;2.33;100.00;96637.06;1019221;29;20482;-70
2021/10/11 00:01:42;;;;;;;53.38;34.33;;;;;;;2.38;100.00;96646.84;1026543;28;20027;-69
2021/10/11 00:02:13;;;;;;;51.40;35.15;;;;;;;2.36;100.00;96654.81;1023313;28;20027;-69
2021/10/11 00:02:44;;;;;;;57.90;34.72;;;;;;;2.34;100.00;96649.00;1030822;28;20035;-70
2021/10/11 00:03:14;;;;;;;53.35;35.10;;;;;;;2.22;100.00;96635.00;1026968;28;20038;-69
2021/10/11 00:03:45;;;;;;;51.67;32.78;;;;;;;2.31;100.00;96644.19;1026903;28;20042;-70
2021/10/11 00:04:15;;;;;;;52.08;34.05;;;;;;;2.26;100.00;96644.78;1026864;28;20420;-70
2021/10/11 00:04:45;;;;;;;52.65;34.55;;;;;;;2.28;100.00;96649.75;1026921;28;20497;-69
2021/10/11 00:05:16;;;;;;;55.05;33.78;;;;;;;2.30;100.00;96652.97;1027145;28;20046;-70
2021/10/11 00:05:47;;;;;;;53.08;36.15;;;;;;;2.26;100.00;96641.38;1026712;28;20130;-70
2021/10/11 00:06:17;;;;;;;51.47;34.58;;;;;;;2.26;100.00;96651.75;1027022;28;20023;-70
2021/10/11 00:06:48;;;;;;;52.63;34.33;;;;;;;2.15;100.00;96631.53;1023046;28;20048;-70
2021/10/11 00:07:18;;;;;;;50.42;31.67;;;;;;;2.24;100.00;96644.16;1019248;29;20031;-69
2021/10/11 00:07:48;;;;;;;59.08;34.00;;;;;;;2.30;100.00;96651.16;1018570;29;20580;-71
2021/10/11 00:08:19;;;;;;;49.78;33.30;;;;;;;2.19;100.00;96625.00;1015138;29;20055;-70
2021/10/11 00:08:49;;;;;;;49.47;33.53;;;;;;;2.29;100.00;96641.03;1019254;29;20549;-70
2021/10/11 00:09:23;;;;;;;57.78;34.00;;;;;;;2.30;100.00;96645.19;1023445;28;20031;-70
2021/10/11 00:09:53;;;;;;;51.40;33.70;;;;;;;2.29;100.00;96641.81;1023394;28;20043;-71
2021/10/11 00:10:24;;;;;;;51.92;34.25;;;;;;;2.30;100.00;96632.25;1023533;28;20030;-70
2021/10/11 00:10:55;;;;;;;52.92;34.95;;;;;;;2.21;100.00;96628.19;1026839;28;20065;-69
2021/10/11 00:11:25;;;;;;;56.42;36.20;;;;;;;2.31;100.00;96631.25;1034003;28;20033;-70
2021/10/11 00:11:55;;;;;;;56.83;35.58;;;;;;;2.28;100.00;96629.03;1031046;28;20018;-70
2021/10/11 00:12:26;;;;;;;55.80;37.22;;;;;;;2.31;100.00;96641.59;1030325;28;20499;-70
2021/10/11 00:12:56;;;;;;;59.55;36.83;;;;;;;2.29;100.00;96635.84;1030881;28;20216;-69
2021/10/11 00:13:28;;;;;;;54.65;35.38;;;;;;;2.31;100.00;96632.06;1027033;28;20015;-70
2021/10/11 00:13:59;;;;;;;58.26;38.12;;;;;;;2.35;100.00;96635.09;1026617;28;20054;-69
2021/10/11 00:14:30;;;;;;;61.97;36.88;;;;;;;2.27;100.00;96628.25;1023477;28;20393;-69
2021/10/11 00:15:00;;;;;;;59.78;35.45;;;;;;;2.35;100.00;96632.50;1023019;29;20271;-70
2021/10/11 00:15:31;;;;;;;61.22;37.22;;;;;;;2.29;100.00;96622.88;1022771;29;20118;-70
2021/10/11 00:16:02;;;;;;;57.95;36.13;;;;;;;2.31;100.00;96628.66;1022874;28;20102;-70
2021/10/11 00:16:32;;;;;;;57.20;37.40;;;;;;;2.26;100.00;96618.88;1026992;28;20050;-70
2021/10/11 00:17:05;;;;;;;62.22;38.63;;;;;;;2.38;100.00;96631.31;1026927;28;20015;-69
2021/10/11 00:17:36;;;;;;;55.88;35.90;;;;;;;2.36;100.00;96626.31;1027940;28;20059;-70
2021/10/11 00:18:07;;;;;;;58.28;35.90;;;;;;;2.40;100.00;96630.13;1030043;28;20213;-70
2021/10/11 00:18:37;;;;;;;57.90;37.92;;;;;;;2.42;100.00;96625.56;1023642;28;20034;-70
2021/10/11 00:19:08;;;;;;;58.05;35.70;;;;;;;2.33;100.00;96616.34;1026653;28;20029;-70
2021/10/11 00:19:38;;;;;;;61.28;36.17;;;;;;;2.45;100.00;96626.97;1026896;28;20102;-70
2021/10/11 00:20:10;;;;;;;61.95;36.50;;;;;;;2.46;100.00;96626.78;1023115;28;20021;-70
2021/10/11 00:20:40;;;;;;;62.48;37.12;;;;;;;2.38;100.00;96616.56;1022567;29;20019;-70
2021/10/11 00:21:11;;;;;;;56.53;37.90;;;;;;;2.42;100.00;96615.22;1019049;29;20055;-70
2021/10/11 00:21:42;;;;;;;53.82;36.44;;;;;;;2.49;100.00;96626.41;1022790;29;20426;-70
2021/10/11 00:22:12;;;;;;;61.90;37.38;;;;;;;2.44;100.00;96618.41;1018674;29;20110;-69
2021/10/11 00:22:43;;;;;;;59.20;37.38;;;;;;;2.52;100.00;96633.81;1019149;29;20032;-70
2021/10/11 00:23:15;;;;;;;58.63;37.92;;;;;;;2.50;100.00;96633.19;1026729;28;20023;-70
2021/10/11 00:23:45;;;;;;;58.76;36.82;;;;;;;2.50;100.00;96634.97;1026699;28;20101;-71
2021/10/11 00:24:16;;;;;;;61.05;37.00;;;;;;;2.45;100.00;96630.38;1023278;28;20028;-70
2021/10/11 00:24:47;;;;;;;54.45;35.38;;;;;;;2.47;100.00;96636.16;1018722;29;20036;-71
2021/10/11 00:25:17;;;;;;;54.67;35.63;;;;;;;2.46;100.00;96633.75;1019087;29;20022;-69
2021/10/11 00:25:48;;;;;;;57.28;38.30;;;;;;;2.35;100.00;96625.53;1022811;29;20500;-71
2021/10/11 00:26:19;;;;;;;54.22;36.30;;;;;;;2.39;100.00;96625.16;1018904;29;20024;-70
2021/10/11 00:26:49;;;;;;;55.50;36.85;;;;;;;2.45;100.00;96639.91;1019072;29;20035;-70
2021/10/11 00:27:19;;;;;;;53.63;34.13;;;;;;;2.47;100.00;96637.94;1019054;29;20367;-69
2021/10/11 00:27:50;;;;;;;56.75;35.25;;;;;;;2.43;100.00;96637.53;1022213;28;20078;-69
2021/10/11 00:28:20;;;;;;;57.70;36.17;;;;;;;2.43;100.00;96642.72;1023069;28;20687;-70
2021/10/11 00:28:51;;;;;;;51.92;34.08;;;;;;;2.42;100.00;96638.53;1022784;28;20505;-70
2021/10/11 00:29:21;;;;;;;55.30;34.33;;;;;;;2.32;100.00;96625.91;1022765;28;20074;-70
2021/10/11 00:29:55;;;;;;;52.22;34.55;;;;;;;2.40;100.00;96634.50;1023059;29;20102;-69
2021/10/11 00:30:28;;;;;;;54.16;35.58;;;;;;;2.35;100.00;96619.56;1026400;28;20031;-68
2021/10/11 00:30:58;;;;;;;62.42;37.14;;;;;;;2.41;100.00;96629.13;1019737;29;20041;-71
2021/10/11 00:31:29;;;;;;;56.45;35.33;;;;;;;2.42;100.00;96632.56;1023664;28;20485;-70
2021/10/11 00:32:03;;;;;;;53.58;35.33;;;;;;;2.40;100.00;96630.13;1026186;28;20027;-68
2021/10/11 00:32:33;;;;;;;51.74;33.14;;;;;;;2.36;100.00;96636.69;1024451;28;20532;-67
2021/10/11 00:33:05;;;;;;;52.85;33.15;;;;;;;2.33;100.00;96631.88;1033133;28;20025;-70
2021/10/11 00:33:36;;;;;;;59.94;33.70;;;;;;;2.32;100.00;96631.09;1027516;28;20027;-70
2021/10/11 00:34:09;;;;;;;57.22;34.30;;;;;;;2.31;100.00;96639.03;1023113;29;20039;-69
2021/10/11 00:34:39;;;;;;;53.80;34.15;;;;;;;2.29;100.00;96628.06;1023258;29;20027;-71
2021/10/11 00:35:10;;;;;;;53.22;34.72;;;;;;;2.30;100.00;96633.03;1023596;29;20098;-70
2021/10/11 00:35:40;;;;;;;57.40;36.10;;;;;;;2.26;100.00;96637.00;1024321;28;20031;-70
2021/10/11 00:36:11;;;;;;;51.10;33.85;;;;;;;2.28;100.00;96640.22;1027421;28;20035;-69
2021/10/11 00:36:41;;;;;;;52.70;34.25;;;;;;;2.32;100.00;96630.28;1026895;28;20091;-70
2021/10/11 00:37:12;;;;;;;53.50;33.50;;;;;;;2.38;100.00;96633.88;1026584;28;20034;-70
2021/10/11 00:37:42;;;;;;;54.63;35.78;;;;;;;2.31;100.00;96637.25;1026414;28;20035;-70
2021/10/11 00:38:13;;;;;;;53.97;34.67;;;;;;;2.27;100.00;96632.63;1018831;29;20035;-70
2021/10/11 00:38:43;;;;;;;53.03;34.72;;;;;;;2.31;100.00;96637.25;1022823;28;20043;-70
2021/10/11 00:39:14;;;;;;;56.42;34.78;;;;;;;2.30;100.00;96637.44;1030744;28;20029;-70
2021/10/11 00:39:44;;;;;;;54.75;34.85;;;;;;;2.20;100.00;96627.41;1026867;28;20575;-70
2021/10/11 00:40:15;;;;;;;56.53;36.65;;;;;;;2.29;100.00;96641.03;1026985;28;20035;-69
2021/10/11 00:40:45;;;;;;;51.05;34.08;;;;;;;2.20;100.00;96642.13;1017817;29;20378;-70
2021/10/11 00:41:16;;;;;;;57.47;34.70;;;;;;;2.11;100.00;96631.09;1014172;29;20027;-71
2021/10/11 00:41:46;;;;;;;53.15;34.53;;;;;;;2.16;100.00;96640.91;1019410;28;20027;-70
2021/10/11 00:42:17;;;;;;;54.63;35.00;;;;;;;2.16;100.00;96646.09;1026975;28;20026;-70
2021/10/11 00:42:47;;;;;;;54.88;35.88;;;;;;;2.03;100.00;96634.63;1030909;28;20038;-71
2021/10/11 00:43:18;;;;;;;59.03;36.45;;;;;;;2.12;100.00;96646.47;1027142;28;20113;-71
2021/10/11 00:43:48;;;;;;;65.78;38.70;;;;;;;2.15;100.00;96649.66;1026905;28;20041;-69
2021/10/11 00:44:19;;;;;;;58.83;37.22;;;;;;;2.10;100.00;96645.84;1023030;29;20575;-69
2021/10/11 00:44:50;;;;;;;60.92;38.53;;;;;;;2.10;100.00;96650.22;1019085;29;20115;-69
2021/10/11 00:45:20;;;;;;;58.70;38.63;;;;;;;2.04;100.00;96638.00;1022889;29;20031;-70
2021/10/11 00:45:51;;;;;;;60.00;37.22;;;;;;;2.08;100.00;96649.63;1023275;28;20059;-70
2021/10/11 00:46:21;;;;;;;62.17;38.75;;;;;;;2.08;100.00;96649.63;1026213;28;20381;-69
2021/10/11 00:46:52;;;;;;;65.50;40.65;;;;;;;2.05;100.00;96650.78;1035070;28;20032;-70
2021/10/11 00:47:27;;;;;;;64.98;38.96;;;;;;;2.02;100.00;96648.56;1034979;28;20022;-70
2021/10/11 00:47:58;;;;;;;67.64;39.26;;;;;;;2.01;100.00;96646.97;1030214;28;20033;-69
2021/10/11 00:48:29;;;;;;;62.40;38.95;;;;;;;2.01;100.00;96651.31;1030888;28;20030;-70
2021/10/11 00:48:59;;;;;;;72.64;40.40;;;;;;;1.99;100.00;96650.72;1031898;28;20026;-70
2021/10/11 00:49:30;;;;;;;68.10;39.90;;;;;;;1.88;100.00;96633.91;1026867;28;20033;-70
2021/10/11 00:50:00;;;;;;;62.00;38.58;;;;;;;1.94;100.00;96648.69;1027202;28;20035;-71
2021/10/11 00:50:31;;;;;;;62.15;37.13;;;;;;;1.95;100.00;96650.28;1018886;29;20511;-67
2021/10/11 00:51:05;;;;;;;66.15;38.58;;;;;;;1.94;100.00;96646.09;1018974;28;20785;-70
2021/10/11 00:51:36;;;;;;;65.56;39.48;;;;;;;1.94;100.00;96647.88;1023831;28;20129;-70
2021/10/11 00:52:06;;;;;;;66.05;39.45;;;;;;;1.92;100.00;96645.50;1026810;28;20026;-70
2021/10/11 00:52:37;;;;;;;69.57;41.60;;;;;;;1.88;100.00;96644.25;1031054;28;20025;-70
2021/10/11 00:53:08;;;;;;;61.10;36.08;;;;;;;1.88;100.00;96646.84;1031058;28;20022;-70
2021/10/11 00:53:38;;;;;;;69.30;39.60;;;;;;;1.84;100.00;96648.19;1026861;28;20075;-70
2021/10/11 00:54:11;;;;;;;56.90;38.05;;;;;;;1.79;100.00;96646.16;1031050;28;20026;-69
2021/10/11 00:54:42;;;;;;;58.48;35.72;;;;;;;1.78;100.00;96641.19;1030810;28;20065;-67
2021/10/11 00:55:12;;;;;;;61.80;38.33;;;;;;;1.80;100.00;96646.97;1027034;28;20098;-70
2021/10/11 00:55:43;;;;;;;55.05;35.53;;;;;;;1.78;100.00;96646.34;1022981;29;20023;-70
2021/10/11 00:56:13;;;;;;;57.33;36.53;;;;;;;1.78;100.00;96654.13;1023424;28;20019;-70
2021/10/11 00:56:44;;;;;;;59.90;36.45;;;;;;;1.71;100.00;96642.88;1022964;28;20063;-69
2021/10/11 00:57:14;;;;;;;64.63;39.42;;;;;;;1.72;100.00;96654.84;1030817;28;20026;-70
2021/10/11 00:57:45;;;;;;;68.97;40.00;;;;;;;1.70;100.00;96655.00;1026183;28;20027;-70
2021/10/11 00:58:15;;;;;;;67.35;41.65;;;;;;;1.69;100.00;96656.00;1019278;29;20024;-70
2021/10/11 00:58:46;;;;;;;69.20;38.33;;;;;;;1.68;100.00;96658.75;1018991;29;20032;-69
2021/10/11 00:59:16;;;;;;;58.47;37.50;;;;;;;1.66;100.00;96651.19;1019028;29;20027;-70
2021/10/11 00:59:46;;;;;;;61.08;36.85;;;;;;;1.64;100.00;96653.97;1018968;29;20028;-70
2021/10/11 01:00:17;;;;;;;65.82;38.38;;;;;;;1.65;100.00;96649.59;1018950;29;20019;-70
2021/10/11 01:00:47;;;;;;;66.13;36.63;;;;;;;1.65;100.00;96647.81;1018814;29;20024;-70
2021/10/11 01:01:18;;;;;;;68.05;37.58;;;;;;;1.61;100.00;96656.09;1019252;28;20056;-71
2021/10/11 01:01:48;;;;;;;64.95;39.88;;;;;;;1.62;100.00;96650.78;1026780;28;20033;-70
2021/10/11 01:02:19;;;;;;;65.18;38.08;;;;;;;1.61;100.00;96654.34;1031183;28;20019;-70
2021/10/11 01:02:49;;;;;;;60.63;38.58;;;;;;;1.59;100.00;96648.53;1030872;28;20034;-70
2021/10/11 01:03:20;;;;;;;62.00;38.90;;;;;;;1.61;100.00;96651.75;1030992;28;20361;-70
2021/10/11 01:03:50;;;;;;;59.10;37.15;;;;;;;1.56;100.00;96645.53;1030829;28;20073;-70
2021/10/11 01:04:20;;;;;;;62.95;39.30;;;;;;;1.57;100.00;96647.91;1027047;28;20091;-67
2021/10/11 01:04:51;;;;;;;64.28;39.55;;;;;;;1.57;100.00;96650.50;1026938;28;20079;-70
2021/10/11 01:05:21;;;;;;;72.20;42.03;;;;;;;1.54;100.00;96643.13;1022891;29;20027;-70
2021/10/11 01:05:52;;;;;;;66.57;41.42;;;;;;;1.58;100.00;96648.75;1022908;28;20069;-70
2021/10/11 01:06:22;;;;;;;74.75;42.65;;;;;;;1.53;100.00;96644.09;1027130;28;20121;-69
2021/10/11 01:06:53;;;;;;;77.22;43.17;;;;;;;1.56;100.00;96643.72;1027038;28;20034;-70
2021/10/11 01:07:23;;;;;;;72.60;43.10;;;;;;;1.56;100.00;96646.31;1022856;28;20051;-70
2021/10/11 01:07:53;;;;;;;72.30;42.83;;;;;;;1.57;100.00;96644.53;1026555;28;20031;-70
2021/10/11 01:08:24;;;;;;;72.97;41.63;;;;;;;1.49;100.00;96635.13;1026743;28;20015;-70
2021/10/11 01:08:54;;;;;;;76.05;43.20;;;;;;;1.39;100.00;96608.75;1030951;28;20022;-69
2021/10/11 01:09:25;;;;;;;82.13;45.38;;;;;;;1.56;100.00;96641.16;1031027;28;20026;-70
2021/10/11 01:09:55;;;;;;;82.60;45.55;;;;;;;1.53;100.00;96644.09;1026867;28;20466;-70
2021/10/11 01:10:26;;;;;;;76.32;43.10;;;;;;;1.57;100.00;96639.34;1022947;29;20447;-70
2021/10/11 01:10:59;;;;;;;79.94;42.58;;;;;;;1.55;100.00;96643.94;1023840;28;20120;-70
2021/10/11 01:11:30;;;;;;;81.28;45.53;;;;;;;1.59;100.00;96650.34;1031258;28;20155;-70
2021/10/11 01:12:00;;;;;;;81.38;44.80;;;;;;;1.54;100.00;96640.56;1031659;28;20038;-70
2021/10/11 01:12:31;;;;;;;83.10;44.25;;;;;;;1.53;100.00;96641.50;1034879;28;20565;-70
2021/10/11 01:13:01;;;;;;;83.20;46.10;;;;;;;1.50;100.00;96635.91;1034855;28;20081;-70
2021/10/11 01:13:32;;;;;;;78.90;42.92;;;;;;;1.49;100.00;96636.91;1035220;28;20032;-70
2021/10/11 01:14:03;;;;;;;77.20;43.80;;;;;;;1.54;100.00;96637.97;1034842;28;20064;-70
2021/10/11 01:14:34;;;;;;;75.98;44.76;;;;;;;1.48;100.00;96633.53;1030949;28;20154;-70
2021/10/11 01:15:05;;;;;;;83.40;48.60;;;;;;;1.51;100.00;96637.50;1026680;28;20061;-70
2021/10/11 01:15:35;;;;;;;75.78;42.94;;;;;;;1.53;100.00;96633.75;1018980;29;20032;-69
2021/10/11 01:16:05;;;;;;;75.07;42.08;;;;;;;1.54;100.00;96648.31;1018982;29;20066;-70
2021/10/11 01:16:36;;;;;;;73.65;43.97;;;;;;;1.53;100.00;96641.50;1030728;28;20061;-71
2021/10/11 01:17:06;;;;;;;70.45;41.63;;;;;;;1.56;100.00;96638.56;1030767;28;20027;-70
2021/10/11 01:17:37;;;;;;;81.65;45.00;;;;;;;1.57;100.00;96634.97;1023185;29;20046;-69
2021/10/11 01:18:07;;;;;;;78.07;43.35;;;;;;;1.56;100.00;96641.16;1014388;29;20072;-70
2021/10/11 01:18:38;;;;;;;72.90;42.28;;;;;;;1.61;100.00;96644.00;1015271;29;20028;-71
2021/10/11 01:19:08;;;;;;;85.35;45.72;;;;;;;1.64;100.00;96648.81;1014766;29;20028;-68
2021/10/11 01:19:39;;;;;;;83.43;45.15;;;;;;;1.58;100.00;96636.59;1026958;28;20396;-70
2021/10/11 01:20:09;;;;;;;80.35;44.10;;;;;;;1.62;100.00;96637.84;1026914;28;20535;-70
2021/10/11 01:20:40;;;;;;;79.32;43.55;;;;;;;1.68;100.00;96646.66;1018803;29;20035;-69
2021/10/11 01:21:10;;;;;;;73.07;43.08;;;;;;;1.59;100.00;96635.63;1022869;29;20404;-70
2021/10/11 01:21:41;;;;;;;73.63;43.63;;;;;;;1.66;100.00;96643.44;1026980;28;20288;-71
2021/10/11 01:22:11;;;;;;;78.50;44.05;;;;;;;1.60;100.00;96637.22;1026987;28;20027;-69
2021/10/11 01:22:42;;;;;;;77.85;43.40;;;;;;;1.69;100.00;96639.69;1035003;28;20022;-71
2021/10/11 01:23:13;;;;;;;76.72;43.62;;;;;;;1.61;100.00;96638.81;1034700;28;20095;-70
2021/10/11 01:23:43;;;;;;;74.65;45.55;;;;;;;1.65;100.00;96628.91;1030547;28;20488;-70
2021/10/11 01:24:14;;;;;;;76.60;43.42;;;;;;;1.64;100.00;96638.47;1026600;28;20077;-70
2021/10/11 01:24:45;;;;;;;76.63;44.83;;;;;;;1.62;100.00;96629.28;1034563;28;20033;-70
2021/10/11 01:25:15;;;;;;;77.60;44.75;;;;;;;1.68;100.00;96632.91;1026894;28;20050;-71
2021/10/11 01:25:46;;;;;;;71.10;43.40;;;;;;;1.72;100.00;96631.56;1027010;28;20854;-70
2021/10/11 01:26:16;;;;;;;78.32;45.25;;;;;;;1.73;100.00;96630.56;1022842;29;20925;-70
2021/10/11 01:26:47;;;;;;;72.13;41.80;;;;;;;1.71;100.00;96625.59;1022958;28;20131;-70
2021/10/11 01:27:20;;;;;;;80.18;44.58;;;;;;;1.78;100.00;96629.03;1027300;28;20037;-69
2021/10/11 01:27:51;;;;;;;76.18;42.70;;;;;;;1.79;100.00;96635.00;1030302;28;20501;-69
2021/10/11 01:28:21;;;;;;;75.10;42.92;;;;;;;1.76;100.00;96635.38;1030987;28;20062;-69
2021/10/11 01:28:51;;;;;;;68.32;40.00;;;;;;;1.77;100.00;96632.59;1027058;28;20052;-70
2021/10/11 01:29:22;;;;;;;75.75;44.42;;;;;;;1.73;100.00;96630.56;1030877;28;20400;-70
2021/10/11 01:29:52;;;;;;;74.43;42.45;;;;;;;1.72;100.00;96629.78;1031081;28;20605;-71
2021/10/11 01:30:23;;;;;;;66.88;42.28;;;;;;;1.70;100.00;96630.94;1026758;28;20634;-70
2021/10/11 01:30:53;;;;;;;72.45;43.55;;;;;;;1.61;100.00;96614.72;1022727;29;20042;-70
2021/10/11 01:31:24;;;;;;;75.65;44.92;;;;;;;1.62;100.00;96624.91;1018921;29;20024;-70
2021/10/11 01:31:54;;;;;;;79.07;44.17;;;;;;;1.63;100.00;96618.72;1018862;29;20020;-70
2021/10/11 01:32:25;;;;;;;79.00;44.42;;;;;;;1.68;100.00;96627.72;1023194;28;20035;-70
2021/10/11 01:32:55;;;;;;;70.10;43.60;;;;;;;1.60;100.00;96619.09;1022769;28;20019;-70
2021/10/11 01:33:26;;;;;;;73.70;42.63;;;;;;;1.62;100.00;96627.50;1018740;29;20016;-70
2021/10/11 01:33:56;;;;;;;79.80;43.10;;;;;;;1.63;100.00;96629.09;1023109;29;20042;-70
2021/10/11 01:34:29;;;;;;;81.97;45.42;;;;;;;1.62;100.00;96631.88;1022877;28;20683;-70
2021/10/11 01:35:00;;;;;;;82.48;46.24;;;;;;;1.52;100.00;96621.81;1027313;28;20019;-70
2021/10/11 01:35:30;;;;;;;79.13;44.15;;;;;;;1.57;100.00;96631.59;1024812;28;20102;-69
2021/10/11 01:36:01;;;;;;;70.47;42.85;;;;;;;1.58;100.00;96633.22;1026852;28;20049;-70
2021/10/11 01:36:31;;;;;;;70.82;42.70;;;;;;;1.49;100.00;96622.19;1026498;28;20019;-70
2021/10/11 01:37:02;;;;;;;70.30;42.72;;;;;;;1.50;100.00;96623.78;1026836;28;20433;-70
2021/10/11 01:37:33;;;;;;;75.40;42.55;;;;;;;1.53;100.00;96631.16;1027871;28;20046;-71
2021/10/11 01:38:05;;;;;;;71.90;41.76;;;;;;;1.49;100.00;96619.59;1025323;28;20033;-70
2021/10/11 01:38:35;;;;;;;84.34;46.02;;;;;;;1.51;100.00;96611.63;1024352;28;20031;-70
2021/10/11 01:39:07;;;;;;;76.10;43.05;;;;;;;1.51;100.00;96627.97;1030836;28;20034;-69
2021/10/11 01:39:37;;;;;;;74.72;42.82;;;;;;;1.54;100.00;96626.78;1016621;29;20039;-70
2021/10/11 01:40:08;;;;;;;81.47;44.75;;;;;;;1.56;100.00;96620.47;1018772;29;20026;-67
2021/10/11 01:40:39;;;;;;;77.95;43.97;;;;;;;1.52;100.00;96608.88;1021188;29;20015;-67
2021/10/11 01:41:10;;;;;;;78.78;43.14;;;;;;;1.57;100.00;96624.63;1022796;29;20416;-69
2021/10/11 01:41:40;;;;;;;76.43;43.08;;;;;;;1.55;100.00;96618.06;1022847;28;20034;-67
2021/10/11 01:42:11;;;;;;;70.43;42.72;;;;;;;1.56;100.00;96620.47;1026947;28;20026;-70
2021/10/11 01:42:41;;;;;;;71.97;42.60;;;;;;;1.53;100.00;96614.84;1019027;28;20553;-70
2021/10/11 01:43:12;;;;;;;76.05;41.22;;;;;;;1.54;100.00;96619.84;1023180;28;20449;-70
2021/10/11 01:43:42;;;;;;;78.93;45.90;;;;;;;1.53;100.00;96615.66;1025688;28;20022;-68
2021/10/11 01:44:13;;;;;;;75.20;42.75;;;;;;;1.51;100.00;96614.22;1023860;28;20023;-67
2021/10/11 01:44:43;;;;;;;74.72;42.78;;;;;;;1.49;100.00;96614.41;1030266;28;20511;-69
2021/10/11 01:45:14;;;;;;;73.00;42.00;;;;;;;1.46;100.00;96614.00;1038055;28;20029;-69
2021/10/11 01:45:47;;;;;;;70.80;42.78;;;;;;;1.45;100.00;96614.97;1026240;28;20026;-67
2021/10/11 01:46:17;;;;;;;76.28;44.24;;;;;;;1.46;100.00;96617.38;1020157;29;20456;-70
2021/10/11 01:46:47;;;;;;;70.30;40.88;;;;;;;1.48;100.00;96614.63;1018359;29;20020;-70
2021/10/11 01:47:24;;;;;;;70.43;39.67;;;;;;;1.32;100.00;96594.97;1014860;29;20462;-69
2021/10/11 01:47:55;;;;;;;68.66;40.12;;;;;;;1.32;100.00;96595.75;1021113;28;20025;-68
2021/10/11 01:48:25;;;;;;;71.85;41.78;;;;;;;1.48;100.00;96623.19;1030182;28;20033;-67
2021/10/11 01:48:56;;;;;;;72.07;41.40;;;;;;;1.40;100.00;96608.56;1021661;29;20031;-69
2021/10/11 01:49:26;;;;;;;75.93;43.58;;;;;;;1.44;100.00;96616.75;1022500;29;20030;-69
2021/10/11 01:49:57;;;;;;;70.07;40.45;;;;;;;1.45;100.00;96614.97;1022540;28;20022;-70
2021/10/11 01:50:27;;;;;;;73.93;41.88;;;;;;;1.49;100.00;96622.19;1018775;29;20024;-70
2021/10/11 01:50:57;;;;;;;72.55;42.58;;;;;;;1.45;100.00;96613.19;1022460;28;20397;-70
2021/10/11 01:51:28;;;;;;;76.38;42.13;;;;;;;1.46;100.00;96629.50;1030779;28;20018;-70
2021/10/11 01:51:58;;;;;;;67.25;40.53;;;;;;;1.37;100.00;96616.66;1026127;28;20077;-69
2021/10/11 01:52:29;;;;;;;66.38;40.17;;;;;;;1.44;100.00;96623.69;1026402;28;20077;-70
2021/10/11 01:52:59;;;;;;;66.82;39.95;;;;;;;1.42;100.00;96629.06;1026830;28;20026;-69
2021/10/11 01:53:30;;;;;;;67.63;39.85;;;;;;;1.40;100.00;96620.69;1022491;28;20086;-71
2021/10/11 01:54:00;;;;;;;64.85;38.75;;;;;;;1.41;100.00;96627.47;1022600;28;20064;-69
2021/10/11 01:54:31;;;;;;;59.75;36.80;;;;;;;1.40;100.00;96629.25;1022802;29;20023;-68
2021/10/11 01:55:06;;;;;;;57.58;36.00;;;;;;;1.38;100.00;96627.84;1022542;28;20503;-69
2021/10/11 01:55:36;;;;;;;65.28;37.86;;;;;;;1.32;100.00;96623.41;1031554;28;20443;-69
2021/10/11 01:56:07;;;;;;;60.95;38.15;;;;;;;1.38;100.00;96627.84;1026765;28;20030;-70
2021/10/11 01:56:37;;;;;;;59.58;36.67;;;;;;;1.38;100.00;96622.66;1030630;28;20487;-70
2021/10/11 01:57:11;;;;;;;64.32;38.40;;;;;;;1.35;100.00;96634.16;1026182;28;20026;-69
2021/10/11 01:57:44;;;;;;;63.58;38.26;;;;;;;1.37;100.00;96623.63;1027516;28;20039;-68
2021/10/11 01:58:14;;;;;;;58.67;35.85;;;;;;;1.34;100.00;96621.41;1026485;28;20032;-69
2021/10/11 01:58:45;;;;;;;61.58;37.83;;;;;;;1.36;100.00;96620.25;1022590;29;20023;-70
2021/10/11 01:59:15;;;;;;;58.20;37.40;;;;;;;1.37;100.00;96624.44;1014334;29;20027;-69
2021/10/11 01:59:46;;;;;;;67.45;40.80;;;;;;;1.31;100.00;96608.88;1014293;29;20402;-70
2021/10/11 02:00:16;;;;;;;69.28;41.22;;;;;;;1.40;100.00;96625.84;1022504;29;20086;-70
2021/10/11 02:00:47;;;;;;;66.63;41.70;;;;;;;1.37;100.00;96619.25;1026324;28;20081;-69
2021/10/11 02:01:17;;;;;;;62.63;38.42;;;;;;;1.36;100.00;96617.66;1026394;28;20022;-70
2021/10/11 02:01:48;;;;;;;62.58;37.58;;;;;;;1.39;100.00;96624.25;1016414;29;20032;-69
2021/10/11 02:02:18;;;;;;;68.05;40.65;;;;;;;1.39;100.00;96619.09;1022474;28;20477;-69
2021/10/11 02:02:49;;;;;;;60.83;38.22;;;;;;;1.38;100.00;96613.13;1033647;28;20531;-70
2021/10/11 02:03:19;;;;;;;61.92;39.10;;;;;;;1.33;100.00;96607.69;1030601;28;20090;-69
2021/10/11 02:03:49;;;;;;;72.85;43.55;;;;;;;1.35;100.00;96628.19;1030566;28;20053;-69
2021/10/11 02:04:20;;;;;;;70.53;41.50;;;;;;;1.34;100.00;96613.66;1030456;28;20030;-70
2021/10/11 02:04:50;;;;;;;67.97;40.65;;;;;;;1.33;100.00;96609.47;1034552;28;20093;-69
2021/10/11 02:05:21;;;;;;;59.95;37.33;;;;;;;1.34;100.00;96611.91;1030635;28;20023;-69
2021/10/11 02:05:51;;;;;;;66.00;39.58;;;;;;;1.34;100.00;96611.91;1030184;28;20026;-70
2021/10/11 02:06:22;;;;;;;64.47;39.78;;;;;;;1.34;100.00;96619.66;1026371;28;20026;-69
2021/10/11 02:06:52;;;;;;;59.33;37.30;;;;;;;1.35;100.00;96617.84;1026528;28;20035;-70
2021/10/11 02:07:25;;;;;;;62.00;38.53;;;;;;;1.36;100.00;96619.44;1022594;28;20777;-70
2021/10/11 02:07:56;;;;;;;60.66;38.92;;;;;;;1.31;100.00;96608.88;1030364;28;20023;-69
2021/10/11 02:08:26;;;;;;;68.75;40.40;;;;;;;1.32;100.00;96619.03;1034294;28;20038;-70
2021/10/11 02:08:57;;;;;;;61.03;37.78;;;;;;;1.26;100.00;96603.44;1030985;28;20404;-70
2021/10/11 02:09:27;;;;;;;76.13;38.13;;;;;;;1.32;100.00;96623.41;1030656;28;20026;-70
2021/10/11 02:09:58;;;;;;;65.35;38.38;;;;;;;1.31;100.00;96616.63;1030623;28;20085;-70
2021/10/11 02:10:28;;;;;;;62.40;38.83;;;;;;;1.25;100.00;96602.63;1022392;29;20031;-69
2021/10/11 02:10:59;;;;;;;66.75;39.90;;;;;;;1.29;100.00;96621.16;1026680;28;20609;-70
2021/10/11 02:11:29;;;;;;;62.50;38.95;;;;;;;1.20;100.00;96604.16;1026426;28;20038;-70
2021/10/11 02:12:00;;;;;;;59.50;37.33;;;;;;;1.30;100.00;96607.25;1026853;28;20120;-70
2021/10/11 02:12:30;;;;;;;61.28;37.03;;;;;;;1.31;100.00;96616.63;1026322;28;20051;-69
2021/10/11 02:13:03;;;;;;;79.00;38.90;;;;;;;1.30;100.00;96615.81;1022443;29;20023;-71
2021/10/11 02:13:34;;;;;;;56.28;36.46;;;;;;;1.30;100.00;96615.00;1022882;29;20086;-69
2021/10/11 02:14:04;;;;;;;56.92;35.40;;;;;;;1.27;100.00;96607.63;1018219;29;20075;-70
2021/10/11 02:14:34;;;;;;;59.92;36.53;;;;;;;1.29;100.00;96611.63;1018954;29;20027;-69
2021/10/11 02:15:08;;;;;;;64.95;36.97;;;;;;;1.29;100.00;96614.22;1022762;28;20020;-70
2021/10/11 02:15:39;;;;;;;58.66;36.22;;;;;;;1.26;100.00;96613.78;1019380;28;20023;-69
2021/10/11 02:16:09;;;;;;;61.47;37.95;;;;;;;1.22;100.00;96621.09;1023308;28;20024;-69
2021/10/11 02:16:39;;;;;;;62.28;36.97;;;;;;;1.23;100.00;96614.13;1027165;28;20026;-69
2021/10/11 02:17:10;;;;;;;58.38;37.53;;;;;;;1.25;100.00;96610.41;1022886;28;20019;-69
2021/10/11 02:17:40;;;;;;;61.05;36.20;;;;;;;1.25;100.00;96618.16;1024955;28;20118;-69
2021/10/11 02:18:11;;;;;;;52.45;35.03;;;;;;;1.20;100.00;96599.78;1026014;28;20035;-69
2021/10/11 02:18:41;;;;;;;55.40;35.13;;;;;;;1.24;100.00;96606.22;1026458;28;20027;-69
2021/10/11 02:19:11;;;;;;;53.88;36.10;;;;;;;1.19;100.00;96595.59;1026534;28;20509;-70
2021/10/11 02:19:42;;;;;;;55.90;34.65;;;;;;;1.20;100.00;96599.78;1030460;28;20424;-71
2021/10/11 02:20:12;;;;;;;61.83;36.83;;;;;;;1.26;100.00;96613.78;1026768;28;20542;-70
2021/10/11 02:20:43;;;;;;;62.22;37.17;;;;;;;1.24;100.00;96610.56;1026590;28;20026;-69
2021/10/11 02:21:13;;;;;;;58.40;34.25;;;;;;;1.18;100.00;96612.09;1034415;28;20030;-70